createdAt,value
2023-04-01T00:01:24.452Z,9.67
2023-04-01T00:03:51.276Z,9.63
2023-04-01T00:06:19.616Z,9.56
2023-04-01T00:08:47.298Z,9.60
2023-04-01T00:11:14.278Z,9.50
2023-04-01T00:13:40.788Z,9.37
2023-04-01T00:16:19.914Z,9.38
2023-04-01T00:18:50.867Z,9.38
2023-04-01T00:21:18.421Z,9.50
2023-04-01T00:23:45.020Z,9.53
2023-04-01T00:26:13.103Z,9.45
2023-04-01T00:28:40.091Z,9.47
2023-04-01T00:31:07.864Z,9.50
2023-04-01T00:33:34.469Z,9.50
2023-04-01T00:36:16.082Z,9.45
2023-04-01T00:38:43.882Z,9.51
2023-04-01T00:41:15.364Z,9.55
2023-04-01T00:43:50.605Z,9.78
2023-04-01T00:46:17.390Z,9.74
2023-04-01T00:48:54.752Z,9.82
2023-04-01T00:51:28.416Z,9.86
2023-04-01T00:53:57.409Z,9.93
2023-04-01T00:56:28.822Z,9.92
2023-04-01T00:59:00.919Z,10.00
2023-04-01T01:01:28.957Z,10.04
2023-04-01T01:03:55.500Z,9.99
2023-04-01T01:06:40.007Z,10.02
2023-04-01T01:09:15.321Z,10.03
2023-04-01T01:11:51.403Z,10.14
2023-04-01T01:14:36.600Z,10.09
2023-04-01T01:17:35.680Z,10.08
2023-04-01T01:20:22.972Z,10.12
2023-04-01T01:23:13.556Z,10.21
2023-04-01T01:25:42.766Z,10.17
2023-04-01T01:28:27.423Z,10.22
2023-04-01T01:31:09.214Z,10.28
2023-04-01T01:34:00.617Z,10.24
2023-04-01T01:36:32.296Z,10.27
2023-04-01T01:38:59.254Z,10.16
2023-04-01T01:41:28.313Z,10.16
2023-04-01T01:43:57.582Z,10.06
2023-04-01T01:46:27.144Z,10.00
2023-04-01T01:48:55.980Z,9.95
2023-04-01T01:51:23.318Z,9.84
2023-04-01T01:53:49.865Z,9.89
2023-04-01T01:56:19.119Z,9.91
2023-04-01T01:58:50.697Z,10.02
2023-04-01T02:01:25.787Z,10.06
2023-04-01T02:03:53.817Z,10.00
2023-04-01T02:06:24.345Z,10.00
2023-04-01T02:08:54.985Z,10.09
2023-04-01T02:11:28.301Z,10.09
2023-04-01T02:13:59.816Z,10.10
2023-04-01T02:16:38.958Z,10.03
2023-04-01T02:19:08.391Z,9.98
2023-04-01T02:21:36.464Z,10.00
2023-04-01T02:24:08.137Z,10.09
2023-04-01T02:26:36.049Z,10.12
2023-04-01T02:29:06.492Z,10.10
2023-04-01T02:31:33.655Z,10.01
2023-04-01T02:34:00.595Z,10.03
2023-04-01T02:36:27.373Z,9.99
2023-04-01T02:38:55.631Z,10.02
2023-04-01T02:41:22.131Z,10.02
2023-04-01T02:43:48.643Z,10.05
2023-04-01T02:46:15.455Z,10.14
2023-04-01T02:48:42.003Z,10.19
2023-04-01T02:51:09.709Z,10.11
2023-04-01T02:53:36.436Z,10.14
2023-04-01T02:56:02.976Z,10.12
2023-04-01T02:58:29.432Z,10.11
2023-04-01T03:00:56.204Z,10.10
2023-04-01T03:03:22.987Z,10.02
2023-04-01T03:05:49.511Z,9.82
2023-04-01T03:08:16.152Z,9.70
2023-04-01T03:10:42.706Z,9.65
2023-04-01T03:13:09.249Z,9.60
2023-04-01T03:15:35.738Z,9.50
2023-04-01T03:18:02.316Z,9.50
2023-04-01T03:20:28.901Z,9.51
2023-04-01T03:22:55.426Z,9.48
2023-04-01T03:25:22.170Z,9.45
2023-04-01T03:27:48.662Z,9.52
2023-04-01T03:30:15.445Z,9.57
2023-04-01T03:32:42.051Z,9.62
2023-04-01T03:35:10.661Z,9.63
2023-04-01T03:37:37.481Z,9.51
2023-04-01T03:40:04.470Z,9.67
2023-04-01T03:42:32.457Z,9.58
2023-04-01T03:44:59.202Z,9.53
2023-04-01T03:47:25.843Z,9.56
2023-04-01T03:49:52.379Z,9.53
2023-04-01T03:52:18.864Z,9.52
2023-04-01T03:54:45.491Z,9.58
2023-04-01T03:57:12.089Z,9.50
2023-04-01T03:59:38.805Z,9.47
2023-04-01T04:02:05.997Z,9.52
2023-04-01T04:04:33.118Z,9.61
2023-04-01T04:06:59.597Z,9.58
2023-04-01T04:09:26.163Z,9.62
2023-04-01T04:11:52.715Z,9.61
2023-04-01T04:14:19.242Z,9.60
2023-04-01T04:16:45.836Z,9.64
2023-04-01T04:19:12.407Z,9.55
2023-04-01T04:21:40.041Z,9.62
2023-04-01T04:24:06.855Z,9.65
2023-04-01T04:26:33.351Z,9.57
2023-04-01T04:28:59.857Z,9.48
2023-04-01T04:31:27.606Z,9.40
2023-04-01T04:33:55.164Z,9.40
2023-04-01T04:36:22.800Z,9.42
2023-04-01T04:38:49.362Z,9.40
2023-04-01T04:41:18.841Z,9.43
2023-04-01T04:43:54.541Z,9.50
2023-04-01T04:46:21.677Z,9.48
2023-04-01T04:48:48.510Z,9.49
2023-04-01T04:51:19.697Z,9.50
2023-04-01T04:53:46.931Z,9.55
2023-04-01T04:56:14.177Z,9.59
2023-04-01T04:58:41.005Z,9.65
2023-04-01T05:01:12.684Z,9.57
2023-04-01T05:03:39.591Z,9.59
2023-04-01T05:06:08.057Z,9.54
2023-04-01T05:08:35.030Z,9.56
2023-04-01T05:11:02.680Z,9.44
2023-04-01T05:13:29.916Z,9.40
2023-04-01T05:15:56.437Z,9.48
2023-04-01T05:18:23.051Z,9.43
2023-04-01T05:20:55.009Z,9.48
2023-04-01T05:23:23.156Z,9.44
2023-04-01T05:25:50.923Z,9.47
2023-04-01T05:28:17.984Z,9.51
2023-04-01T05:30:45.049Z,9.46
2023-04-01T05:33:13.531Z,9.46
2023-04-01T05:35:41.641Z,9.41
2023-04-01T05:38:08.303Z,9.45
2023-04-01T05:40:35.018Z,9.44
2023-04-01T05:43:01.747Z,9.49
2023-04-01T05:45:28.683Z,9.49
2023-04-01T05:47:55.474Z,9.47
2023-04-01T05:50:21.995Z,9.53
2023-04-01T05:52:48.512Z,9.45
2023-04-01T05:55:15.058Z,9.46
2023-04-01T05:57:41.863Z,9.45
2023-04-01T06:00:08.898Z,9.53
2023-04-01T06:02:35.492Z,9.51
2023-04-01T06:05:16.431Z,9.50
2023-04-01T06:07:43.126Z,9.55
2023-04-01T06:10:20.784Z,9.59
2023-04-01T06:13:10.441Z,9.59
2023-04-01T06:16:02.150Z,9.67
2023-04-01T06:19:02.899Z,9.65
2023-04-01T06:21:51.183Z,9.66
2023-04-01T06:24:32.274Z,9.65
2023-04-01T06:27:13.927Z,9.60
2023-04-01T06:29:49.457Z,9.62
2023-04-01T06:32:23.379Z,9.77
2023-04-01T06:35:16.796Z,9.80
2023-04-01T06:38:31.838Z,9.79
2023-04-01T06:41:26.108Z,9.76
2023-04-01T06:44:19.930Z,9.80
2023-04-01T06:46:48.939Z,9.80
2023-04-01T06:49:44.746Z,9.94
2023-04-01T06:52:26.489Z,9.98
2023-04-01T06:55:13.726Z,9.97
2023-04-01T06:57:44.842Z,10.08
2023-04-01T07:00:37.877Z,10.14
2023-04-01T07:03:16.280Z,10.10
2023-04-01T07:05:43.218Z,10.08
2023-04-01T07:08:26.659Z,10.03
2023-04-01T07:10:59.034Z,9.93
2023-04-01T07:13:32.799Z,9.99
2023-04-01T07:16:08.037Z,10.06
2023-04-01T07:18:53.022Z,10.05
2023-04-01T07:21:45.659Z,10.12
2023-04-01T07:24:20.194Z,10.14
2023-04-01T07:26:48.140Z,10.11
2023-04-01T07:29:16.423Z,10.16
2023-04-01T07:32:16.238Z,10.21
2023-04-01T07:34:50.434Z,10.27
2023-04-01T07:37:40.329Z,10.36
2023-04-01T07:40:06.871Z,10.34
2023-04-01T07:42:45.215Z,10.38
2023-04-01T07:45:30.469Z,10.54
2023-04-01T07:48:15.624Z,10.52
2023-04-01T07:51:06.110Z,10.42
2023-04-01T07:53:51.162Z,10.43
2023-04-01T07:56:34.006Z,10.42
2023-04-01T07:59:21.249Z,10.38
2023-04-01T08:02:15.410Z,10.18
2023-04-01T08:04:55.712Z,10.18
2023-04-01T08:07:46.315Z,10.28
2023-04-01T08:10:22.464Z,10.45
2023-04-01T08:13:00.490Z,10.48
2023-04-01T08:15:43.519Z,10.45
2023-04-01T08:18:14.526Z,10.57
2023-04-01T08:20:46.564Z,10.61
2023-04-01T08:23:33.645Z,10.58
2023-04-01T08:26:37.213Z,10.57
2023-04-01T08:29:16.338Z,10.49
2023-04-01T08:31:55.024Z,10.59
2023-04-01T08:34:27.207Z,10.62
2023-04-01T08:37:37.429Z,10.61
2023-04-01T08:40:42.693Z,10.72
2023-04-01T08:43:39.967Z,10.70
2023-04-01T08:46:15.252Z,10.70
2023-04-01T08:49:02.623Z,10.61
2023-04-01T08:51:41.005Z,10.58
2023-04-01T08:54:31.903Z,10.62
2023-04-01T08:57:09.663Z,10.77
2023-04-01T08:59:48.112Z,10.96
2023-04-01T09:02:51.603Z,11.04
2023-04-01T09:05:37.920Z,11.06
2023-04-01T09:08:23.273Z,11.08
2023-04-01T09:11:07.729Z,11.13
2023-04-01T09:14:06.206Z,11.05
2023-04-01T09:16:52.423Z,11.04
2023-04-01T09:19:57.931Z,11.10
2023-04-01T09:23:12.716Z,11.03
2023-04-01T09:25:48.128Z,11.05
2023-04-01T09:28:29.917Z,11.14
2023-04-01T09:30:56.374Z,11.10
2023-04-01T09:34:00.845Z,11.06
2023-04-01T09:36:46.578Z,10.97
2023-04-01T09:39:39.232Z,11.04
2023-04-01T09:42:33.090Z,11.20
2023-04-01T09:45:08.430Z,11.27
2023-04-01T09:48:12.670Z,11.18
2023-04-01T09:50:39.048Z,10.91
2023-04-01T09:53:46.904Z,10.96
2023-04-01T09:56:35.215Z,11.15
2023-04-01T09:59:13.753Z,11.23
2023-04-01T10:01:53.619Z,11.23
2023-04-01T10:04:57.655Z,11.25
2023-04-01T10:07:45.745Z,11.03
2023-04-01T10:10:39.869Z,11.09
2023-04-01T10:13:54.662Z,11.12
2023-04-01T10:16:58.590Z,11.27
2023-04-01T10:19:40.494Z,11.29
2023-04-01T10:22:28.880Z,11.39
2023-04-01T10:25:17.270Z,11.52
2023-04-01T10:28:07.751Z,11.62
2023-04-01T10:30:34.332Z,11.54
2023-04-01T10:33:22.398Z,11.60
2023-04-01T10:36:32.082Z,11.68
2023-04-01T10:39:27.217Z,11.73
2023-04-01T10:41:59.858Z,11.68
2023-04-01T10:44:35.435Z,11.67
2023-04-01T10:47:26.834Z,11.69
2023-04-01T10:50:25.108Z,11.40
2023-04-01T10:53:31.693Z,11.20
2023-04-01T10:56:16.945Z,11.04
2023-04-01T10:58:58.603Z,11.02
2023-04-01T11:01:40.268Z,11.03
2023-04-01T11:04:31.615Z,10.88
2023-04-01T11:07:04.162Z,11.02
2023-04-01T11:10:08.509Z,11.06
2023-04-01T11:13:02.875Z,11.13
2023-04-01T11:15:39.103Z,11.29
2023-04-01T11:18:23.241Z,11.38
2023-04-01T11:21:03.597Z,11.55
2023-04-01T11:23:36.217Z,11.68
2023-04-01T11:26:16.930Z,11.80
2023-04-01T11:29:21.300Z,11.73
2023-04-01T11:31:56.194Z,11.85
2023-04-01T11:34:28.464Z,11.91
2023-04-01T11:37:06.776Z,12.08
2023-04-01T11:40:13.736Z,12.23
2023-04-01T11:43:17.274Z,12.53
2023-04-01T11:46:17.345Z,12.74
2023-04-01T11:49:16.819Z,12.99
2023-04-01T11:52:02.501Z,13.22
2023-04-01T11:55:10.492Z,13.43
2023-04-01T11:57:53.360Z,13.26
2023-04-01T12:00:58.901Z,13.77
2023-04-01T12:03:46.973Z,14.02
2023-04-01T12:06:22.549Z,14.27
2023-04-01T12:09:11.133Z,14.27
2023-04-01T12:11:52.982Z,13.90
2023-04-01T12:15:14.966Z,14.28
2023-04-01T12:17:49.853Z,14.36
2023-04-01T12:20:38.740Z,14.25
2023-04-01T12:23:39.827Z,14.34
2023-04-01T12:26:14.685Z,14.13
2023-04-01T12:28:56.384Z,13.93
2023-04-01T12:31:42.799Z,13.67
2023-04-01T12:34:42.154Z,13.76
2023-04-01T12:37:20.366Z,13.86
2023-04-01T12:39:57.542Z,13.92
2023-04-01T12:42:36.469Z,13.58
2023-04-01T12:45:15.078Z,13.69
2023-04-01T12:48:19.177Z,13.68
2023-04-01T12:50:57.857Z,13.42
2023-04-01T12:53:55.820Z,13.50
2023-04-01T12:56:34.651Z,13.51
2023-04-01T12:59:20.609Z,13.62
2023-04-01T13:02:10.194Z,13.54
2023-04-01T13:04:51.933Z,13.27
2023-04-01T13:07:27.356Z,13.01
2023-04-01T13:10:14.821Z,12.77
2023-04-01T13:13:03.110Z,12.55
2023-04-01T13:15:49.474Z,12.17
2023-04-01T13:18:21.118Z,11.72
2023-04-01T13:20:50.816Z,11.62
2023-04-01T13:23:51.761Z,11.90
2023-04-01T13:26:42.148Z,12.01
2023-04-01T13:29:27.094Z,12.12
2023-04-01T13:32:06.111Z,12.25
2023-04-01T13:34:44.892Z,12.39
2023-04-01T13:37:17.110Z,12.52
2023-04-01T13:40:21.451Z,12.29
2023-04-01T13:42:58.419Z,12.01
2023-04-01T13:45:38.928Z,11.75
2023-04-01T13:48:16.623Z,11.80
2023-04-01T13:51:14.041Z,11.84
2023-04-01T13:54:02.210Z,11.89
2023-04-01T13:56:38.216Z,11.93
2023-04-01T13:59:15.396Z,11.95
2023-04-01T14:02:19.194Z,12.20
2023-04-01T14:05:43.477Z,12.37
2023-04-01T14:08:10.630Z,12.53
2023-04-01T14:10:48.545Z,12.87
2023-04-01T14:13:31.362Z,13.05
2023-04-01T14:16:08.504Z,13.18
2023-04-01T14:18:54.423Z,13.32
2023-04-01T14:21:48.720Z,13.40
2023-04-01T14:24:33.391Z,13.22
2023-04-01T14:27:15.288Z,12.86
2023-04-01T14:30:09.567Z,12.58
2023-04-01T14:32:59.239Z,12.44
2023-04-01T14:35:37.806Z,12.33
2023-04-01T14:38:25.979Z,12.04
2023-04-01T14:41:13.835Z,12.36
2023-04-01T14:44:10.736Z,12.36
2023-04-01T14:46:52.552Z,12.58
2023-04-01T14:49:38.564Z,12.67
2023-04-01T14:52:36.522Z,12.60
2023-04-01T14:55:20.997Z,12.73
2023-04-01T14:58:05.619Z,12.84
2023-04-01T15:01:03.373Z,12.81
2023-04-01T15:03:32.638Z,12.99
2023-04-01T15:06:13.896Z,13.28
2023-04-01T15:09:06.792Z,13.41
2023-04-01T15:12:02.952Z,13.31
2023-04-01T15:14:39.979Z,13.30
2023-04-01T15:17:40.949Z,13.44
2023-04-01T15:20:35.526Z,13.60
2023-04-01T15:23:47.039Z,13.68
2023-04-01T15:26:38.918Z,13.68
2023-04-01T15:29:15.854Z,13.54
2023-04-01T15:32:01.653Z,13.45
2023-04-01T15:34:46.159Z,13.35
2023-04-01T15:37:15.831Z,13.23
2023-04-01T15:40:10.626Z,13.05
2023-04-01T15:42:39.917Z,12.93
2023-04-01T15:45:50.502Z,12.83
2023-04-01T15:48:41.890Z,12.87
2023-04-01T15:51:26.006Z,13.00
2023-04-01T15:53:55.271Z,13.10
2023-04-01T15:56:42.211Z,13.09
2023-04-01T15:59:11.356Z,13.16
2023-04-01T16:01:53.181Z,13.26
2023-04-01T16:04:47.606Z,13.31
2023-04-01T16:07:32.136Z,13.35
2023-04-01T16:10:17.296Z,13.49
2023-04-01T16:13:06.039Z,13.45
2023-04-01T16:15:51.587Z,13.50
2023-04-01T16:18:42.906Z,13.51
2023-04-01T16:21:30.023Z,13.54
2023-04-01T16:24:00.678Z,13.43
2023-04-01T16:26:54.726Z,13.33
2023-04-01T16:29:30.275Z,13.24
2023-04-01T16:32:15.486Z,12.88
2023-04-01T16:35:14.337Z,12.65
2023-04-01T16:37:48.059Z,12.41
2023-04-01T16:40:39.528Z,12.45
2023-04-01T16:43:14.356Z,12.46
2023-04-01T16:46:09.329Z,12.55
2023-04-01T16:49:03.713Z,12.44
2023-04-01T16:51:58.307Z,12.36
2023-04-01T16:54:42.696Z,12.34
2023-04-01T16:57:19.398Z,12.22
2023-04-01T17:00:17.881Z,12.22
2023-04-01T17:02:52.573Z,12.18
2023-04-01T17:05:21.790Z,12.07
2023-04-01T17:08:30.231Z,11.93
2023-04-01T17:11:08.833Z,11.96
2023-04-01T17:13:42.740Z,12.01
2023-04-01T17:16:21.450Z,11.88
2023-04-01T17:19:10.643Z,11.85
2023-04-01T17:21:43.013Z,11.83
2023-04-01T17:24:34.801Z,11.72
2023-04-01T17:27:33.390Z,11.70
2023-04-01T17:30:30.141Z,11.65
2023-04-01T17:32:59.373Z,11.65
2023-04-01T17:35:51.396Z,11.72
2023-04-01T17:38:21.275Z,11.68
2023-04-01T17:41:06.516Z,11.65
2023-04-01T17:44:04.013Z,11.63
2023-04-01T17:46:40.742Z,11.76
2023-04-01T17:49:39.610Z,11.63
2023-04-01T17:52:25.509Z,11.56
2023-04-01T17:55:18.443Z,11.48
2023-04-01T17:57:53.514Z,11.38
2023-04-01T18:00:46.232Z,11.38
2023-04-01T18:03:38.124Z,11.47
2023-04-01T18:06:08.808Z,11.48
2023-04-01T18:08:44.221Z,11.37
2023-04-01T18:11:36.112Z,11.36
2023-04-01T18:14:40.375Z,11.37
2023-04-01T18:17:22.576Z,11.38
2023-04-01T18:19:57.952Z,11.42
2023-04-01T18:22:27.374Z,11.35
2023-04-01T18:25:11.276Z,11.11
2023-04-01T18:27:41.607Z,11.01
2023-04-01T18:30:30.545Z,11.03
2023-04-01T18:33:06.358Z,11.07
2023-04-01T18:35:54.006Z,11.03
2023-04-01T18:38:32.644Z,11.05
2023-04-01T18:41:28.428Z,11.08
2023-04-01T18:44:02.348Z,11.04
2023-04-01T18:46:34.819Z,11.04
2023-04-01T18:49:13.009Z,11.05
2023-04-01T18:51:47.653Z,10.91
2023-04-01T18:54:20.784Z,10.93
2023-04-01T18:56:47.554Z,10.94
2023-04-01T18:59:30.872Z,10.72
2023-04-01T19:02:29.921Z,10.73
2023-04-01T19:05:06.250Z,10.66
2023-04-01T19:07:38.670Z,10.69
2023-04-01T19:10:14.464Z,10.62
2023-04-01T19:13:02.599Z,10.65
2023-04-01T19:15:47.581Z,10.74
2023-04-01T19:18:43.381Z,10.77
2023-04-01T19:21:28.538Z,10.71
2023-04-01T19:24:14.839Z,10.75
2023-04-01T19:26:50.555Z,10.77
2023-04-01T19:29:38.669Z,10.83
2023-04-01T19:32:31.647Z,10.74
2023-04-01T19:35:18.439Z,10.65
2023-04-01T19:38:14.553Z,10.67
2023-04-01T19:41:05.395Z,10.62
2023-04-01T19:44:02.320Z,10.57
2023-04-01T19:46:34.896Z,10.52
2023-04-01T19:49:10.652Z,10.47
2023-04-01T19:52:04.807Z,10.32
2023-04-01T19:54:40.884Z,10.32
2023-04-01T19:57:16.837Z,10.37
2023-04-01T20:00:02.986Z,10.34
2023-04-01T20:02:39.186Z,10.26
2023-04-01T20:05:27.080Z,10.22
2023-04-01T20:08:00.994Z,10.18
2023-04-01T20:10:42.007Z,10.18
2023-04-01T20:13:28.264Z,10.04
2023-04-01T20:16:04.905Z,9.94
2023-04-01T20:19:01.421Z,9.96
2023-04-01T20:21:32.783Z,9.95
2023-04-01T20:24:14.617Z,9.93
2023-04-01T20:26:49.502Z,9.96
2023-04-01T20:29:28.278Z,9.94
2023-04-01T20:32:00.841Z,9.99
2023-04-01T20:35:14.465Z,9.98
2023-04-01T20:38:22.510Z,9.97
2023-04-01T20:40:52.100Z,10.01
2023-04-01T20:43:29.080Z,10.12
2023-04-01T20:46:06.774Z,10.07
2023-04-01T20:48:53.351Z,10.06
2023-04-01T20:51:25.728Z,10.06
2023-04-01T20:54:07.386Z,10.06
2023-04-01T20:57:22.042Z,10.09
2023-04-01T20:59:58.651Z,10.05
2023-04-01T21:02:46.889Z,10.11
2023-04-01T21:05:23.280Z,10.11
2023-04-01T21:07:58.661Z,10.12
2023-04-01T21:10:30.683Z,10.11
2023-04-01T21:13:02.665Z,10.12
2023-04-01T21:16:03.265Z,10.06
2023-04-01T21:19:01.281Z,10.07
2023-04-01T21:21:37.854Z,10.05
2023-04-01T21:24:40.388Z,10.02
2023-04-01T21:27:46.753Z,9.99
2023-04-01T21:30:20.568Z,9.89
2023-04-01T21:33:11.965Z,9.73
2023-04-01T21:36:00.187Z,9.69
2023-04-01T21:38:49.476Z,9.65
2023-04-01T21:41:58.695Z,9.68
2023-04-01T21:45:08.519Z,9.58
2023-04-01T21:47:34.927Z,9.52
2023-04-01T21:50:19.953Z,9.71
2023-04-01T21:53:07.482Z,9.64
2023-04-01T21:55:46.002Z,9.76
2023-04-01T21:58:41.457Z,9.64
2023-04-01T22:01:24.351Z,9.69
2023-04-01T22:04:00.721Z,9.60
2023-04-01T22:07:00.735Z,9.60
2023-04-01T22:09:49.683Z,9.62
2023-04-01T22:12:34.926Z,9.65
2023-04-01T22:15:09.562Z,9.58
2023-04-01T22:18:15.020Z,9.58
2023-04-01T22:20:51.029Z,9.52
2023-04-01T22:23:46.196Z,9.46
2023-04-01T22:26:48.727Z,9.41
2023-04-01T22:29:43.026Z,9.29
2023-04-01T22:32:36.563Z,9.13
2023-04-01T22:35:14.540Z,9.13
2023-04-01T22:38:19.416Z,9.13
2023-04-01T22:41:22.938Z,9.04
2023-04-01T22:43:50.813Z,8.98
2023-04-01T22:46:38.954Z,8.84
2023-04-01T22:49:05.410Z,8.79
2023-04-01T22:51:45.575Z,8.78
2023-04-01T22:54:32.702Z,8.76
2023-04-01T22:57:16.463Z,8.75
2023-04-01T22:59:56.011Z,8.76
2023-04-01T23:02:29.617Z,8.75
2023-04-01T23:05:00.060Z,8.76
2023-04-01T23:07:49.989Z,8.69
2023-04-01T23:10:25.914Z,8.62
2023-04-01T23:12:55.774Z,8.66
2023-04-01T23:15:22.830Z,8.60
2023-04-01T23:18:04.080Z,8.64
2023-04-01T23:20:30.494Z,8.65
2023-04-01T23:23:17.314Z,8.61
2023-04-01T23:25:52.564Z,8.68
2023-04-01T23:28:44.218Z,8.73
2023-04-01T23:31:35.083Z,8.73
2023-04-01T23:34:12.286Z,8.78
2023-04-01T23:36:43.625Z,8.76
2023-04-01T23:39:48.605Z,8.84
2023-04-01T23:42:24.724Z,8.81
2023-04-01T23:44:55.008Z,8.78
2023-04-01T23:47:36.553Z,8.82
2023-04-01T23:50:23.973Z,8.74
2023-04-01T23:53:00.393Z,8.69
2023-04-01T23:55:31.729Z,8.85
2023-04-01T23:58:23.044Z,8.84
